Time;durP1;ratioP1;P1;durP2;ratioP2;P2;SDS_P1;SDS_P2;PMS_P1;PMS_P2;Temp;Humidity;BMP_temperature;BMP_pressure;BME280_temperature;BME280_humidity;BME280_pressure;Samples;Min_cycle;Max_cycle;Signal;HPM_P1;HPM_P2
2023/09/05 00:01:56;;;;;;;19.65;11.90;;;16.70;99.90;;;;;;4739208;30;20139;-74
2023/09/05 00:04:22;;;;;;;14.63;11.40;;;16.70;99.90;;;;;;4739128;30;20452;-74
2023/09/05 00:06:47;;;;;;;16.10;10.88;;;16.70;99.90;;;;;;4739082;30;20585;-74
2023/09/05 00:09:14;;;;;;;17.27;12.60;;;16.70;99.90;;;;;;4737527;30;20514;-74
2023/09/05 00:11:40;;;;;;;14.80;11.82;;;16.70;99.90;;;;;;4738679;30;20048;-74
2023/09/05 00:14:06;;;;;;;15.23;11.88;;;16.60;99.90;;;;;;4738917;30;20082;-74
2023/09/05 00:16:31;;;;;;;19.80;12.57;;;16.60;99.90;;;;;;4738850;30;20401;-74
2023/09/05 00:18:57;;;;;;;18.08;11.93;;;16.60;99.90;;;;;;4738632;30;20102;-74
2023/09/05 00:21:23;;;;;;;18.48;12.50;;;16.50;99.90;;;;;;4738775;30;20052;-74
2023/09/05 00:23:48;;;;;;;17.58;12.00;;;16.50;99.90;;;;;;4738643;30;20054;-74
2023/09/05 00:26:14;;;;;;;17.13;12.15;;;16.50;99.90;;;;;;4754271;30;20059;-74
2023/09/05 00:28:42;;;;;;;15.85;11.77;;;16.40;99.90;;;;;;4738456;30;20052;-74
2023/09/05 00:31:08;;;;;;;17.58;12.05;;;16.40;99.90;;;;;;4738631;30;20060;-74
2023/09/05 00:33:33;;;;;;;17.67;12.55;;;16.40;99.90;;;;;;4754423;30;20074;-74
2023/09/05 00:36:00;;;;;;;18.02;12.98;;;16.40;99.90;;;;;;4738675;30;20067;-74
2023/09/05 00:38:25;;;;;;;20.00;14.13;;;16.30;99.90;;;;;;4738164;30;20060;-74
2023/09/05 00:40:53;;;;;;;17.85;13.32;;;16.30;99.90;;;;;;4738330;30;20055;-74
2023/09/05 00:43:20;;;;;;;16.98;12.35;;;16.30;99.90;;;;;;4738434;30;20064;-73
2023/09/05 00:45:51;;;;;;;21.27;13.38;;;16.30;99.90;;;;;;4754074;30;20063;-73
2023/09/05 00:48:18;;;;;;;18.50;14.20;;;16.30;99.90;;;;;;4753898;30;20048;-73
2023/09/05 00:50:46;;;;;;;20.85;13.50;;;16.30;99.90;;;;;;4738392;30;20056;-73
2023/09/05 00:53:12;;;;;;;19.52;14.02;;;16.30;99.90;;;;;;4753985;30;20047;-74
2023/09/05 00:55:38;;;;;;;19.98;14.27;;;16.30;99.90;;;;;;4737953;30;20135;-74
2023/09/05 00:58:04;;;;;;;20.83;13.63;;;16.20;99.90;;;;;;4738157;30;20135;-73
2023/09/05 01:00:30;;;;;;;20.08;14.20;;;16.30;99.90;;;;;;4753768;30;20391;-74
2023/09/05 01:02:55;;;;;;;19.17;14.38;;;16.30;99.90;;;;;;4737868;30;20063;-74
2023/09/05 01:05:27;;;;;;;18.48;13.68;;;16.20;99.90;;;;;;4738184;30;20134;-73
2023/09/05 01:08:12;;;;;;;19.85;13.70;;;16.30;99.90;;;;;;4737849;30;20059;-74
2023/09/05 01:10:59;;;;;;;21.42;14.45;;;16.20;99.90;;;;;;4737603;30;20056;-74
2023/09/05 01:13:26;;;;;;;20.35;13.75;;;16.20;99.90;;;;;;4738011;30;20401;-74
2023/09/05 01:15:52;;;;;;;17.60;13.07;;;16.10;99.90;;;;;;4737713;30;20060;-74
2023/09/05 01:18:18;;;;;;;19.90;13.57;;;16.10;99.90;;;;;;4737761;30;20135;-74
2023/09/05 01:21:19;;;;;;;18.42;13.43;;;16.00;99.90;;;;;;4737772;30;20143;-74
2023/09/05 01:23:49;;;;;;;18.30;13.95;;;16.00;99.90;;;;;;4737883;30;20091;-74
2023/09/05 01:26:16;;;;;;;18.02;13.45;;;15.90;99.90;;;;;;4737906;30;20044;-74
2023/09/05 01:28:44;;;;;;;21.65;14.00;;;15.90;99.90;;;;;;4737468;30;20059;-74
2023/09/05 01:31:10;;;;;;;22.70;14.43;;;15.80;99.90;;;;;;4753267;30;20131;-74
2023/09/05 01:33:40;;;;;;;20.52;14.27;;;15.80;99.90;;;;;;4737419;30;20056;-74
2023/09/05 01:36:07;;;;;;;22.15;14.93;;;15.70;99.90;;;;;;4737669;30;20138;-74
2023/09/05 01:38:33;;;;;;;24.05;15.45;;;15.70;99.90;;;;;;4737076;30;20488;-74
2023/09/05 01:41:00;;;;;;;24.38;15.23;;;15.70;99.90;;;;;;4737586;30;20067;-74
2023/09/05 01:43:26;;;;;;;23.17;14.90;;;15.70;99.90;;;;;;4737143;30;20051;-74
2023/09/05 01:45:52;;;;;;;25.00;16.30;;;15.60;99.90;;;;;;4737339;30;20052;-73
2023/09/05 01:48:17;;;;;;;23.92;15.63;;;15.60;99.90;;;;;;4737222;30;20056;-74
2023/09/05 01:50:43;;;;;;;24.05;15.82;;;15.60;99.90;;;;;;4737253;30;20048;-74
2023/09/05 01:53:09;;;;;;;23.33;16.60;;;15.60;99.90;;;;;;4737297;30;20132;-74
2023/09/05 01:55:34;;;;;;;26.58;16.65;;;15.50;99.90;;;;;;4737185;30;20052;-73
2023/09/05 01:58:00;;;;;;;25.25;16.20;;;15.50;99.90;;;;;;4737077;30;20126;-73
2023/09/05 02:00:26;;;;;;;24.48;16.40;;;15.50;99.90;;;;;;4737222;30;20138;-73
2023/09/05 02:02:51;;;;;;;25.90;16.67;;;15.50;99.90;;;;;;4753028;30;20190;-73
2023/09/05 02:05:17;;;;;;;26.25;16.83;;;15.40;99.90;;;;;;4737102;30;20045;-73
2023/09/05 02:07:43;;;;;;;27.13;17.65;;;15.30;99.90;;;;;;4737273;30;20146;-73
2023/09/05 02:10:09;;;;;;;28.13;18.75;;;15.30;99.90;;;;;;4737382;30;20048;-73
2023/09/05 02:12:37;;;;;;;29.92;18.63;;;15.30;99.90;;;;;;4737006;30;20052;-73
2023/09/05 02:15:04;;;;;;;29.77;19.83;;;15.30;99.90;;;;;;4737295;30;20066;-73
2023/09/05 02:17:34;;;;;;;30.27;18.83;;;15.30;99.90;;;;;;4737214;30;20071;-73
2023/09/05 02:20:00;;;;;;;28.05;17.73;;;15.30;99.90;;;;;;4737332;30;20114;-73
2023/09/05 02:22:25;;;;;;;29.70;18.65;;;15.30;99.90;;;;;;4738474;30;20060;-73
2023/09/05 02:24:51;;;;;;;26.10;18.73;;;15.20;99.90;;;;;;4756461;30;20389;-73
2023/09/05 02:27:16;;;;;;;27.27;18.77;;;15.20;99.90;;;;;;4740704;30;20091;-73
2023/09/05 02:29:42;;;;;;;27.02;18.42;;;15.20;99.90;;;;;;4756529;30;20048;-73
2023/09/05 02:32:08;;;;;;;29.35;18.05;;;15.20;99.90;;;;;;4740463;30;20058;-73
2023/09/05 02:34:34;;;;;;;27.08;18.20;;;15.20;99.90;;;;;;4740438;30;20119;-73
2023/09/05 02:37:00;;;;;;;28.33;19.33;;;15.20;99.90;;;;;;4756280;30;20504;-73
2023/09/05 02:39:28;;;;;;;28.63;19.60;;;15.20;99.90;;;;;;4739054;30;20064;-73
2023/09/05 02:41:54;;;;;;;29.67;20.20;;;15.20;99.90;;;;;;4739413;30;20075;-73
2023/09/05 02:44:19;;;;;;;30.42;19.70;;;15.10;99.90;;;;;;4738986;30;20405;-73
2023/09/05 02:46:45;;;;;;;34.92;21.25;;;15.20;99.90;;;;;;4739162;30;20083;-73
2023/09/05 02:49:11;;;;;;;32.05;19.95;;;15.10;99.90;;;;;;4738924;30;20099;-73
2023/09/05 02:51:36;;;;;;;30.10;19.40;;;15.20;99.90;;;;;;4754745;30;20040;-73
2023/09/05 02:54:02;;;;;;;28.45;19.67;;;15.20;99.90;;;;;;4754793;30;20062;-73
2023/09/05 02:56:27;;;;;;;30.38;20.30;;;15.10;99.90;;;;;;4738972;30;20044;-73
2023/09/05 02:58:53;;;;;;;30.92;20.13;;;15.10;99.90;;;;;;4738826;30;20052;-73
2023/09/05 03:01:19;;;;;;;32.80;19.70;;;15.10;99.90;;;;;;4739029;30;20051;-73
2023/09/05 03:03:44;;;;;;;29.67;20.45;;;15.10;99.90;;;;;;4754694;30;20135;-73
2023/09/05 03:06:12;;;;;;;29.38;19.15;;;15.10;99.90;;;;;;4738872;30;20048;-73
2023/09/05 03:08:38;;;;;;;27.98;17.80;;;15.10;99.90;;;;;;4754541;30;20048;-73
2023/09/05 03:11:04;;;;;;;28.92;19.05;;;15.10;99.90;;;;;;4754411;30;20060;-73
2023/09/05 03:13:30;;;;;;;28.27;18.75;;;15.00;99.90;;;;;;4738586;30;20050;-73
2023/09/05 03:15:56;;;;;;;28.42;18.50;;;15.10;99.90;;;;;;4754392;30;20194;-73
2023/09/05 03:18:21;;;;;;;31.98;20.00;;;15.10;99.90;;;;;;4754539;30;20054;-73
2023/09/05 03:20:47;;;;;;;26.05;17.40;;;15.00;99.90;;;;;;4738946;30;20124;-73
2023/09/05 03:23:14;;;;;;;27.73;18.52;;;15.00;99.90;;;;;;4754380;30;20071;-73
2023/09/05 03:25:39;;;;;;;25.77;17.60;;;15.00;99.90;;;;;;4754462;30;20075;-73
2023/09/05 03:28:05;;;;;;;29.08;19.20;;;15.00;99.90;;;;;;4738316;30;20533;-73
2023/09/05 03:30:31;;;;;;;25.05;17.33;;;15.00;99.90;;;;;;4738387;30;20052;-73
2023/09/05 03:32:57;;;;;;;29.27;19.25;;;14.90;99.90;;;;;;4738017;30;20127;-73
2023/09/05 03:35:22;;;;;;;27.00;18.20;;;14.90;99.90;;;;;;4738351;30;20139;-73
2023/09/05 03:37:49;;;;;;;28.75;19.55;;;14.90;99.90;;;;;;4676193;30;1904738;-73
2023/09/05 03:40:15;;;;;;;27.55;18.08;;;14.90;99.90;;;;;;4755321;30;20131;-73
2023/09/05 03:42:41;;;;;;;30.00;19.83;;;14.80;99.90;;;;;;4739212;30;20147;-73
2023/09/05 03:45:08;;;;;;;31.50;21.00;;;14.80;99.90;;;;;;4739412;30;20485;-73
2023/09/05 03:47:33;;;;;;;30.02;20.67;;;14.80;99.90;;;;;;4739068;30;20056;-73
2023/09/05 03:49:59;;;;;;;29.02;19.60;;;14.80;99.90;;;;;;4739134;30;20048;-73
2023/09/05 03:52:25;;;;;;;25.23;17.55;;;14.70;99.90;;;;;;4738993;30;20052;-73
2023/09/05 03:54:50;;;;;;;25.77;17.65;;;14.70;99.90;;;;;;4755586;30;20048;-73
2023/09/05 03:57:16;;;;;;;29.75;20.50;;;14.70;99.90;;;;;;4739254;30;20470;-73
2023/09/05 03:59:42;;;;;;;27.55;18.67;;;14.60;99.90;;;;;;4739248;30;20117;-73
2023/09/05 04:02:07;;;;;;;30.27;20.30;;;14.60;99.90;;;;;;4739036;30;20075;-73
2023/09/05 04:04:33;;;;;;;28.58;20.00;;;14.60;99.90;;;;;;4754655;30;20048;-73
2023/09/05 04:06:59;;;;;;;30.08;20.63;;;14.60;99.90;;;;;;4754862;30;20102;-73
2023/09/05 04:09:24;;;;;;;31.60;19.42;;;14.50;99.90;;;;;;4738727;30;20056;-73
2023/09/05 04:11:50;;;;;;;29.77;19.80;;;14.50;99.90;;;;;;4738986;30;20056;-73
2023/09/05 04:14:15;;;;;;;31.67;21.08;;;14.50;99.90;;;;;;4739012;30;20096;-73
2023/09/05 04:16:42;;;;;;;34.30;19.70;;;14.50;99.90;;;;;;4754719;30;20127;-73
2023/09/05 04:19:08;;;;;;;31.98;20.50;;;14.50;99.90;;;;;;4738744;30;20056;-73
2023/09/05 04:21:35;;;;;;;36.45;21.75;;;14.50;99.90;;;;;;4738491;30;20056;-73
2023/09/05 04:24:00;;;;;;;27.95;19.23;;;14.50;99.90;;;;;;4754461;30;20111;-73
2023/09/05 04:26:28;;;;;;;32.03;20.27;;;14.50;99.90;;;;;;4754515;30;20489;-74
2023/09/05 04:28:54;;;;;;;30.95;19.40;;;14.50;99.90;;;;;;4738340;30;20421;-74
2023/09/05 04:31:20;;;;;;;30.05;19.25;;;14.50;99.90;;;;;;4738747;30;20469;-74
2023/09/05 04:33:45;;;;;;;28.88;20.08;;;14.50;99.90;;;;;;4738639;30;20053;-74
2023/09/05 04:36:11;;;;;;;31.77;19.80;;;14.50;99.90;;;;;;4754144;30;20459;-74
2023/09/05 04:38:45;;;;;;;30.20;19.65;;;14.40;99.90;;;;;;4737981;30;20071;-74
2023/09/05 04:41:11;;;;;;;34.88;20.38;;;14.50;99.90;;;;;;4738260;30;20070;-74
2023/09/05 04:43:37;;;;;;;25.70;18.23;;;14.50;99.90;;;;;;4738127;30;20052;-74
2023/09/05 04:46:09;;;;;;;34.20;19.92;;;14.40;99.90;;;;;;4736727;30;20060;-74
2023/09/05 04:48:35;;;;;;;28.10;19.50;;;14.50;99.90;;;;;;4737928;30;20055;-74
2023/09/05 04:51:03;;;;;;;28.80;19.25;;;14.50;99.90;;;;;;4738177;30;20059;-73
2023/09/05 04:53:32;;;;;;;28.73;20.48;;;14.50;99.90;;;;;;4737841;30;20048;-74
2023/09/05 04:56:00;;;;;;;27.50;19.38;;;14.50;99.90;;;;;;4738017;30;20051;-74
2023/09/05 04:58:27;;;;;;;29.23;20.23;;;14.50;99.90;;;;;;4737842;30;20130;-74
2023/09/05 05:01:03;;;;;;;29.35;19.00;;;14.50;99.90;;;;;;4753566;30;20040;-74
2023/09/05 05:03:30;;;;;;;31.00;20.73;;;14.50;99.90;;;;;;4738299;30;20052;-74
2023/09/05 05:05:59;;;;;;;31.45;20.58;;;14.50;99.90;;;;;;4737633;30;20052;-74
2023/09/05 05:08:24;;;;;;;29.58;20.08;;;14.50;99.90;;;;;;4737537;30;20134;-74
2023/09/05 05:10:50;;;;;;;28.65;20.15;;;14.50;99.90;;;;;;4753419;30;20143;-74
2023/09/05 05:13:16;;;;;;;26.90;18.42;;;14.50;99.90;;;;;;4737814;30;20058;-74
2023/09/05 05:15:46;;;;;;;27.45;18.88;;;14.50;99.90;;;;;;4737639;30;20124;-74
2023/09/05 05:18:12;;;;;;;28.52;19.98;;;14.40;99.90;;;;;;4753662;30;20055;-74
2023/09/05 05:20:38;;;;;;;32.85;19.77;;;14.50;99.90;;;;;;4737417;30;20106;-74
2023/09/05 05:23:04;;;;;;;28.98;19.05;;;14.40;99.90;;;;;;4753493;30;20048;-74
2023/09/05 05:25:30;;;;;;;29.85;19.52;;;14.40;99.90;;;;;;4737641;30;20067;-73
2023/09/05 05:27:55;;;;;;;30.40;19.95;;;14.50;99.90;;;;;;4737210;30;20429;-73
2023/09/05 05:30:21;;;;;;;27.92;18.70;;;14.50;99.90;;;;;;4737288;30;20052;-74
2023/09/05 05:32:49;;;;;;;31.20;20.85;;;14.50;99.90;;;;;;4737501;30;20052;-74
2023/09/05 05:35:15;;;;;;;27.77;19.17;;;14.50;99.90;;;;;;4737367;30;20147;-74
2023/09/05 05:37:41;;;;;;;30.40;19.35;;;14.60;99.90;;;;;;4737251;30;20498;-74
2023/09/05 05:40:10;;;;;;;26.98;19.25;;;14.60;99.90;;;;;;4737130;30;20064;-73
2023/09/05 05:42:36;;;;;;;28.70;17.90;;;14.60;99.90;;;;;;4737081;30;20173;-73
2023/09/05 05:45:02;;;;;;;30.88;18.50;;;14.70;99.90;;;;;;4736982;30;20131;-73
2023/09/05 05:47:27;;;;;;;26.77;17.48;;;14.70;99.90;;;;;;4737346;30;20125;-73
2023/09/05 05:49:53;;;;;;;26.15;18.00;;;14.80;99.90;;;;;;4737051;30;20414;-73
2023/09/05 05:52:19;;;;;;;29.83;18.75;;;14.90;99.90;;;;;;4737337;30;20056;-73
2023/09/05 05:54:44;;;;;;;27.30;18.98;;;15.00;99.90;;;;;;4737030;30;20056;-73
2023/09/05 05:57:10;;;;;;;24.58;18.40;;;15.00;99.90;;;;;;4736966;30;20056;-74
2023/09/05 05:59:35;;;;;;;29.00;18.42;;;15.10;99.90;;;;;;4736933;30;20056;-73
2023/09/05 06:02:01;;;;;;;25.50;18.20;;;15.10;99.90;;;;;;4737174;30;20052;-73
2023/09/05 06:04:27;;;;;;;27.58;17.52;;;15.20;99.90;;;;;;4737194;30;20106;-73
2023/09/05 06:06:53;;;;;;;25.35;17.58;;;15.30;99.90;;;;;;4752957;30;20052;-73
2023/09/05 06:09:18;;;;;;;24.35;17.38;;;15.40;99.90;;;;;;4736894;30;20052;-73
2023/09/05 06:11:45;;;;;;;30.30;18.20;;;15.60;99.90;;;;;;4736777;30;20045;-74
2023/09/05 06:14:12;;;;;;;24.75;17.58;;;15.70;99.90;;;;;;4736766;30;20048;-74
2023/09/05 06:16:37;;;;;;;30.10;17.92;;;15.80;99.90;;;;;;4736782;30;20052;-74
2023/09/05 06:19:03;;;;;;;29.80;17.85;;;15.90;99.90;;;;;;4737023;30;20135;-73
2023/09/05 06:21:29;;;;;;;27.17;17.48;;;16.00;99.90;;;;;;4736814;30;20413;-73
2023/09/05 06:23:54;;;;;;;25.35;17.33;;;16.10;99.90;;;;;;4731425;30;20075;-72
2023/09/05 06:26:20;;;;;;;26.27;17.67;;;16.20;99.90;;;;;;4742515;30;20060;-73
2023/09/05 06:28:47;;;;;;;27.73;16.77;;;16.30;99.90;;;;;;4719216;30;20107;-72
2023/09/05 06:31:14;;;;;;;29.75;16.63;;;16.40;99.90;;;;;;4719007;30;20053;-73
2023/09/05 06:33:40;;;;;;;24.52;16.83;;;16.50;99.90;;;;;;4719228;30;20049;-73
2023/09/05 06:36:06;;;;;;;23.02;16.15;;;16.70;99.90;;;;;;4719224;30;20405;-73
2023/09/05 06:38:34;;;;;;;28.35;17.52;;;16.70;99.90;;;;;;4718916;30;20544;-73
2023/09/05 06:41:11;;;;;;;22.90;16.38;;;16.80;99.90;;;;;;4719005;30;20151;-73
2023/09/05 06:43:37;;;;;;;25.15;15.88;;;16.90;99.90;;;;;;4719198;30;20064;-73
2023/09/05 06:46:04;;;;;;;28.05;15.75;;;17.10;99.90;;;;;;4718867;30;20057;-73
2023/09/05 06:48:30;;;;;;;24.10;16.13;;;17.20;99.90;;;;;;4719120;30;20470;-73
2023/09/05 06:50:57;;;;;;;22.42;15.45;;;17.30;99.90;;;;;;4719040;30;20094;-73
2023/09/05 06:53:23;;;;;;;22.20;14.43;;;17.40;99.90;;;;;;4719071;30;20056;-73
2023/09/05 06:55:49;;;;;;;22.58;15.18;;;17.50;99.90;;;;;;4734801;30;20425;-73
2023/09/05 06:58:14;;;;;;;20.60;14.50;;;17.60;99.90;;;;;;4719057;30;20458;-73
2023/09/05 07:00:40;;;;;;;21.40;14.95;;;17.70;99.90;;;;;;4718728;30;20470;-73
2023/09/05 07:03:06;;;;;;;23.90;14.95;;;17.80;99.90;;;;;;4718748;30;20061;-74
2023/09/05 07:05:32;;;;;;;21.35;14.30;;;17.90;99.90;;;;;;4718936;30;20494;-74
2023/09/05 07:07:58;;;;;;;18.75;13.25;;;18.00;99.90;;;;;;4719239;30;20127;-74
2023/09/05 07:10:24;;;;;;;21.15;14.68;;;18.10;99.90;;;;;;4722210;30;20139;-74
2023/09/05 07:12:55;;;;;;;19.50;13.38;;;18.20;99.90;;;;;;4737777;30;20053;-74
2023/09/05 07:15:21;;;;;;;18.92;13.32;;;18.30;99.90;;;;;;4721968;30;20059;-74
2023/09/05 07:17:47;;;;;;;19.20;13.80;;;18.30;99.90;;;;;;4722044;30;20052;-73
2023/09/05 07:20:12;;;;;;;19.88;13.45;;;18.50;99.90;;;;;;4737558;30;20486;-74
2023/09/05 07:22:38;;;;;;;20.10;13.00;;;18.50;99.90;;;;;;4721689;30;20052;-73
2023/09/05 07:25:04;;;;;;;20.98;13.32;;;18.60;99.90;;;;;;4721669;30;20047;-73
2023/09/05 07:27:29;;;;;;;22.13;13.07;;;18.70;99.90;;;;;;4721907;30;20088;-73
2023/09/05 07:29:55;;;;;;;20.30;12.98;;;18.80;99.90;;;;;;4721643;30;20052;-73
2023/09/05 07:32:21;;;;;;;17.42;12.07;;;18.90;99.90;;;;;;4721626;30;20052;-74
2023/09/05 07:34:48;;;;;;;15.48;10.07;;;19.00;99.90;;;;;;4721884;30;20068;-73
2023/09/05 07:37:16;;;;;;;17.58;11.82;;;19.10;99.90;;;;;;4736972;30;20120;-74
2023/09/05 07:39:50;;;;;;;19.27;11.27;;;19.20;99.90;;;;;;4737567;30;20049;-72
2023/09/05 07:42:19;;;;;;;18.08;11.38;;;19.30;99.90;;;;;;4737570;30;20048;-72
2023/09/05 07:44:44;;;;;;;18.13;12.38;;;19.40;99.90;;;;;;4737176;30;20161;-72
2023/09/05 07:47:10;;;;;;;20.25;15.40;;;19.50;99.90;;;;;;4720144;30;20549;-72
2023/09/05 07:49:42;;;;;;;16.10;10.90;;;19.60;99.90;;;;;;4721243;30;20052;-72
2023/09/05 07:52:08;;;;;;;17.50;10.88;;;19.70;99.90;;;;;;4721291;30;20414;-73
2023/09/05 07:54:35;;;;;;;19.35;12.05;;;19.70;99.90;;;;;;4721315;30;20505;-73
2023/09/05 07:57:02;;;;;;;17.60;10.15;;;19.80;99.90;;;;;;4737297;30;20067;-73
2023/09/05 07:59:28;;;;;;;12.60;9.73;;;19.90;99.90;;;;;;4721300;30;20060;-73
2023/09/05 08:01:55;;;;;;;15.55;10.30;;;20.00;99.90;;;;;;4721133;30;20120;-73
2023/09/05 08:04:21;;;;;;;17.10;10.02;;;20.10;99.90;;;;;;4721265;30;20061;-75
2023/09/05 08:06:48;;;;;;;13.52;9.57;;;20.20;99.90;;;;;;4721049;30;20049;-72
2023/09/05 08:09:14;;;;;;;13.00;8.93;;;20.20;99.90;;;;;;4721003;30;20064;-74
2023/09/05 08:11:39;;;;;;;11.75;9.63;;;20.30;99.90;;;;;;4721071;30;20103;-72
2023/09/05 08:14:05;;;;;;;10.60;8.20;;;20.40;99.90;;;;;;4720899;30;20064;-72
2023/09/05 08:16:31;;;;;;;15.73;8.20;;;20.50;99.90;;;;;;4736810;30;20045;-72
2023/09/05 08:18:56;;;;;;;12.57;8.65;;;20.60;99.90;;;;;;4720471;30;20425;-73
2023/09/05 08:21:22;;;;;;;16.15;10.52;;;20.60;99.90;;;;;;4720321;30;20493;-72
2023/09/05 08:23:50;;;;;;;19.33;9.98;;;20.70;99.90;;;;;;4721047;30;20122;-73
2023/09/05 08:26:16;;;;;;;18.15;14.52;;;20.90;99.90;;;;;;4720995;30;20049;-72
2023/09/05 08:28:44;;;;;;;15.52;10.82;;;20.90;99.90;;;;;;4720693;30;20430;-74
2023/09/05 08:31:14;;;;;;;14.25;10.98;;;21.00;99.90;;;;;;4720616;30;20061;-73
2023/09/05 08:33:42;;;;;;;15.68;10.63;;;21.10;99.90;;;;;;4720725;30;20045;-73
2023/09/05 08:36:09;;;;;;;19.05;13.05;;;21.10;99.90;;;;;;4720849;30;20057;-72
2023/09/05 08:38:39;;;;;;;19.50;14.38;;;21.20;99.90;;;;;;4736187;30;20119;-72
2023/09/05 08:41:06;;;;;;;19.63;13.30;;;21.30;99.90;;;;;;4720525;30;20061;-72
2023/09/05 08:43:33;;;;;;;17.23;12.15;;;21.40;99.90;;;;;;4720692;30;20131;-72
2023/09/05 08:46:03;;;;;;;15.50;11.13;;;21.40;99.90;;;;;;4720392;30;20126;-72
2023/09/05 08:48:29;;;;;;;18.23;11.52;;;21.50;99.90;;;;;;4735982;30;20522;-73
2023/09/05 08:50:58;;;;;;;12.00;9.57;;;21.60;99.90;;;;;;4720385;30;20163;-73
2023/09/05 08:53:30;;;;;;;16.15;11.35;;;21.70;99.90;;;;;;4735996;30;20405;-72
2023/09/05 08:55:57;;;;;;;17.92;10.80;;;21.80;99.90;;;;;;4736100;30;20056;-73
2023/09/05 08:58:25;;;;;;;18.95;11.10;;;21.90;99.90;;;;;;4720132;30;20178;-72
2023/09/05 09:00:51;;;;;;;16.67;11.40;;;22.00;99.90;;;;;;4736091;30;20040;-73
2023/09/05 09:03:17;;;;;;;17.20;12.10;;;22.10;99.90;;;;;;4720084;30;20064;-72
2023/09/05 09:05:46;;;;;;;17.65;11.18;;;22.10;99.90;;;;;;4720250;30;20048;-72
2023/09/05 09:08:13;;;;;;;16.27;10.63;;;22.20;99.90;;;;;;4720245;30;20052;-72
2023/09/05 09:10:42;;;;;;;16.80;11.20;;;22.30;99.90;;;;;;4720226;30;20136;-72
2023/09/05 09:13:18;;;;;;;14.77;10.02;;;22.30;99.90;;;;;;4735551;30;20411;-73
2023/09/05 09:15:46;;;;;;;15.52;9.68;;;22.50;99.90;;;;;;4720282;30;20061;-73
2023/09/05 09:18:12;;;;;;;15.25;10.07;;;22.50;99.90;;;;;;4719874;30;20399;-73
2023/09/05 09:20:45;;;;;;;16.27;11.50;;;22.50;99.90;;;;;;4720040;30;20136;-72
2023/09/05 09:23:11;;;;;;;17.25;11.73;;;22.60;99.90;;;;;;4719734;30;20120;-73
2023/09/05 09:25:47;;;;;;;15.35;10.75;;;22.60;99.90;;;;;;4719972;30;20135;-73
2023/09/05 09:28:21;;;;;;;16.70;12.00;;;22.70;99.90;;;;;;4719787;30;20048;-73
2023/09/05 09:30:53;;;;;;;15.02;11.10;;;22.70;99.90;;;;;;4719481;30;20061;-73
2023/09/05 09:33:20;;;;;;;;;;;22.80;99.90;;;;;;4720082;30;20057;-73
2023/09/05 09:36:04;;;;;;;20.10;15.43;;;22.80;99.90;;;;;;4719859;30;19927;-74
2023/09/05 09:38:32;;;;;;;23.90;16.80;;;22.70;99.90;;;;;;4719622;30;20064;-73
2023/09/05 09:41:02;;;;;;;27.92;17.60;;;22.70;99.90;;;;;;4735578;30;20056;-73
2023/09/05 09:43:37;;;;;;;24.88;18.23;;;22.60;99.90;;;;;;4719694;30;20490;-73
2023/09/05 09:46:05;;;;;;;24.45;18.48;;;22.60;99.90;;;;;;4719786;30;20391;-73
2023/09/05 09:48:35;;;;;;;27.63;18.40;;;22.50;99.90;;;;;;4719409;30;20052;-73
2023/09/05 09:51:04;;;;;;;23.60;16.77;;;22.50;99.90;;;;;;4719428;30;20068;-73
2023/09/05 09:53:36;;;;;;;25.33;19.23;;;22.50;99.90;;;;;;4719641;30;20044;-74
2023/09/05 09:56:08;;;;;;;24.67;16.80;;;22.70;99.90;;;;;;4719383;30;20088;-73
2023/09/05 09:58:35;;;;;;;24.80;17.45;;;22.70;99.90;;;;;;4719675;30;20508;-74
2023/09/05 10:01:03;;;;;;;24.20;16.05;;;22.80;99.90;;;;;;4719408;30;20056;-73
2023/09/05 10:03:30;;;;;;;23.98;16.80;;;22.90;99.90;;;;;;4719478;30;20052;-73
2023/09/05 10:05:57;;;;;;;22.27;17.00;;;22.90;99.90;;;;;;4719556;30;20103;-79
2023/09/05 10:08:24;;;;;;;24.52;16.40;;;22.80;99.90;;;;;;4719361;30;20052;-73
2023/09/05 10:10:54;;;;;;;19.20;13.25;;;22.80;99.90;;;;;;4735053;30;20057;-73
2023/09/05 10:13:25;;;;;;;19.30;15.57;;;23.00;99.90;;;;;;4719362;30;20474;-73
2023/09/05 10:15:52;;;;;;;23.40;15.80;;;23.10;99.90;;;;;;4719402;30;20059;-72
2023/09/05 10:18:19;;;;;;;19.00;14.32;;;23.10;99.90;;;;;;4719329;30;20052;-73
2023/09/05 10:20:46;;;;;;;18.45;14.07;;;23.20;99.90;;;;;;4735000;30;20106;-73
2023/09/05 10:23:14;;;;;;;19.38;12.70;;;23.20;99.90;;;;;;4734750;30;20517;-73
2023/09/05 10:25:41;;;;;;;19.05;11.57;;;23.40;99.90;;;;;;4719180;30;20060;-73
2023/09/05 10:28:08;;;;;;;17.05;11.68;;;23.60;99.90;;;;;;4719205;30;20069;-73
2023/09/05 10:30:46;;;;;;;19.33;12.98;;;23.70;99.90;;;;;;4719035;30;20139;-73
2023/09/05 10:33:13;;;;;;;16.95;12.70;;;23.80;99.90;;;;;;4719016;30;20050;-73
2023/09/05 10:35:44;;;;;;;16.38;11.95;;;23.90;99.90;;;;;;4719156;30;20484;-73
2023/09/05 10:38:14;;;;;;;14.00;10.82;;;23.90;99.90;;;;;;4718753;30;20056;-73
2023/09/05 10:40:40;;;;;;;16.17;12.48;;;24.00;99.90;;;;;;4718945;30;20485;-73
2023/09/05 10:43:17;;;;;;;18.63;12.63;;;24.20;99.90;;;;;;4719828;30;20490;-73
2023/09/05 10:45:43;;;;;;;19.00;14.27;;;24.20;99.90;;;;;;4738466;30;20048;-74
2023/09/05 10:48:32;;;;;;;21.10;14.35;;;24.20;99.90;;;;;;4722243;30;20471;-73
2023/09/05 10:51:08;;;;;;;20.67;15.23;;;24.20;99.90;;;;;;4722553;30;20061;-73
2023/09/05 10:53:36;;;;;;;24.67;15.13;;;24.40;99.90;;;;;;4722510;30;20056;-73
2023/09/05 10:56:05;;;;;;;21.17;15.27;;;24.40;99.90;;;;;;4722478;30;20065;-73
2023/09/05 10:58:40;;;;;;;21.85;15.85;;;24.40;99.90;;;;;;4722413;30;20056;-73
2023/09/05 11:01:29;;;;;;;21.45;16.60;;;24.60;99.90;;;;;;4722094;30;20506;-73
2023/09/05 11:04:02;;;;;;;21.25;17.48;;;24.70;99.90;;;;;;4738118;30;20045;-73
2023/09/05 11:06:28;;;;;;;28.70;17.13;;;24.70;99.90;;;;;;4722377;30;20066;-73
2023/09/05 11:09:04;;;;;;;22.25;15.55;;;24.70;99.90;;;;;;4722010;30;20053;-73
2023/09/05 11:11:35;;;;;;;22.25;16.00;;;24.50;99.90;;;;;;4722022;30;20104;-73
2023/09/05 11:14:01;;;;;;;21.88;14.85;;;24.40;99.90;;;;;;4722011;30;20490;-73
2023/09/05 11:16:27;;;;;;;25.55;17.25;;;24.50;99.90;;;;;;4722143;30;20063;-74
2023/09/05 11:18:56;;;;;;;30.90;20.60;;;24.50;99.90;;;;;;4737556;30;20445;-74
2023/09/05 11:21:23;;;;;;;26.58;17.67;;;24.40;99.90;;;;;;4721793;30;20157;-72
2023/09/05 11:23:55;;;;;;;22.42;16.65;;;24.40;99.90;;;;;;4737430;30;20110;-74
2023/09/05 11:26:22;;;;;;;23.63;16.45;;;24.20;99.90;;;;;;4721750;30;20482;-73
2023/09/05 11:28:48;;;;;;;20.27;13.23;;;24.20;99.90;;;;;;4737614;30;20048;-72
2023/09/05 11:31:21;;;;;;;17.30;11.73;;;24.10;99.90;;;;;;4721667;30;20057;-73
2023/09/05 11:33:48;;;;;;;19.25;12.45;;;24.20;99.90;;;;;;4721823;30;20123;-74
2023/09/05 11:36:14;;;;;;;19.27;12.50;;;24.30;99.90;;;;;;4721856;30;20060;-74
2023/09/05 11:38:49;;;;;;;18.10;11.52;;;24.30;99.90;;;;;;4737229;30;20065;-76
2023/09/05 11:41:16;;;;;;;16.88;11.20;;;24.00;99.90;;;;;;4721497;30;20063;-74
2023/09/05 11:43:50;;;;;;;18.67;12.15;;;24.10;99.90;;;;;;4721735;30;20111;-74
2023/09/05 11:46:17;;;;;;;16.83;11.25;;;24.00;99.90;;;;;;4721675;30;20549;-74
2023/09/05 11:48:45;;;;;;;16.95;12.15;;;23.90;99.90;;;;;;4744225;30;20520;-74
2023/09/05 11:51:14;;;;;;;24.10;12.50;;;23.60;99.90;;;;;;4738430;30;20056;-74
2023/09/05 11:53:42;;;;;;;16.17;12.50;;;23.60;99.90;;;;;;4738198;30;20148;-74
2023/09/05 11:56:08;;;;;;;23.45;11.60;;;23.80;99.90;;;;;;4738513;30;20413;-74
2023/09/05 11:58:34;;;;;;;18.00;13.00;;;23.80;99.90;;;;;;4738722;30;20056;-74
2023/09/05 12:01:00;;;;;;;18.10;13.15;;;23.90;99.90;;;;;;4754775;30;20052;-73
2023/09/05 12:03:29;;;;;;;20.83;11.93;;;23.80;99.90;;;;;;4738924;30;20044;-74
2023/09/05 12:06:02;;;;;;;21.70;14.25;;;24.10;99.90;;;;;;4738090;30;20064;-74
2023/09/05 12:08:27;;;;;;;20.48;13.02;;;24.00;99.90;;;;;;4738627;30;20509;-74
2023/09/05 12:10:55;;;;;;;24.92;15.77;;;24.00;99.90;;;;;;4738487;30;20044;-73
2023/09/05 12:13:38;;;;;;;24.25;14.60;;;23.80;99.90;;;;;;4738832;30;20494;-75
2023/09/05 12:16:07;;;;;;;24.00;14.27;;;24.00;99.90;;;;;;4738452;30;20052;-73
2023/09/05 12:18:33;;;;;;;23.15;15.25;;;23.90;99.90;;;;;;4738431;30;20425;-74
2023/09/05 12:21:02;;;;;;;22.33;14.20;;;24.00;99.90;;;;;;4754449;30;20059;-73
2023/09/05 12:23:31;;;;;;;23.27;17.83;;;24.20;99.90;;;;;;4738207;30;20060;-74
2023/09/05 12:25:57;;;;;;;24.98;15.45;;;24.00;99.90;;;;;;4754275;30;20056;-73
2023/09/05 12:28:25;;;;;;;27.13;17.83;;;23.90;99.90;;;;;;4738094;30;20055;-72
2023/09/05 12:30:55;;;;;;;22.52;14.35;;;23.70;99.90;;;;;;4738155;30;20056;-72